• Join FlightAware (Why Join?)
  • Login
  • US Flag 
12:41PM EDT


 

Airport Tracker/Info


-or-


 

Live Flight TrackerFlight Track Log ✈ TCF3494 ✈ 16-Apr-2013 ✈ KLGA - KORD

Flight Track Log - Related Links

Times and Time Zones

All times are in EDT time to prevent confusion due to time zone crossing. See the TCF3494 flight status page for this flight to view local times or setup timezone preferences in your user account.

Time Position Orientation Groundspeed Altitude Reporting Facility
EDT Latitude Longitude Course Direction KTS MPH feet Rate Location/Type
07:02PM 40.7500 -73.8333 299° West 143 165 1,800  Level New York TRACON
07:03PM 40.7833 -73.7833 49° Northeast 273 314 3,600 2,640 Climbing New York TRACON
07:05PM 40.8867 -73.8314 341° North 247 284 9,300 2,940 Climbing New York Center
07:06PM 40.9267 -73.8964 309° West 241 277 11,700 2,760 Climbing New York Center
07:07PM 41.0240 -74.4307 299° West  Level FlightAware Approximate
07:07PM 41.0131 -73.9281 345° North 270 311 14,800  Level New York Center
07:08PM 41.0659 -74.5314 299° West  Level FlightAware Approximate
07:08PM 41.0875 -73.9564 344° North 296 341 14,900  Level New York Center
07:09PM 41.1739 -73.9933 342° North 301 346 14,900  Level New York Center
07:10PM 41.1656 -74.0675 262° West 200 230 14,900 240 Level New York Center
07:11PM 41.1053 -74.1333 219° Southwest 233 268 15,500 480 Climbing New York Center
07:12PM 41.1108 -74.2353 274° West 270 311 15,900 720 Climbing New York Center
07:13PM 41.1175 -74.3625 274° West 311 358 17,000 1,440 Climbing New York Center
07:14PM 41.1244 -74.4731 275° West 331 381 18,800 2,040 Climbing New York Center
07:15PM 41.1306 -74.6083 273° West 336 387 21,100 1,920 Climbing New York Center
07:16PM 41.1533 -74.7364 283° West 342 394 22,700 1,560 Climbing New York Center
07:17PM 41.2056 -74.8553 300° West 352 405 24,300 1,380 Climbing New York Center
07:18PM 41.2536 -74.9658 300° West 375 432 25,500 1,260 Climbing New York Center
07:19PM 41.3078 -75.0878 301° West 380 437 26,800 1,320 Climbing New York Center
07:20PM 41.3592 -75.2128 299° West 387 445 28,200 1,260 Climbing New York Center
07:21PM 41.4150 -75.3381 301° West 387 445 29,400 1,080 Climbing New York Center
07:22PM 41.4681 -75.4664 299° West 387 445 30,400 1,020 Climbing New York Center
07:23PM 41.5086 -75.5994 292° West 387 445 31,500 1,080 Climbing New York Center
07:24PM 41.5469 -75.7325 291° West 387 445 32,600 1,080 Climbing New York Center
07:25PM 41.5850 -75.8656 291° West 382 440 33,700 960 Climbing New York Center
07:26PM 41.6231 -75.9961 291° West 382 440 34,500 780 Climbing New York Center
07:27PM 41.6608 -76.1269 291° West 382 440 35,300 720 Climbing New York Center
07:28PM 41.7000 -76.2744 290° West 382 440 36,000 300 Climbing New York Center
07:29PM 41.7394 -76.4083 292° West 382 440 36,000  Level New York Center
07:30PM 41.7692 -76.5278 288° West 382 440 36,000  Level New York Center
07:32PM 41.8503 -76.8139 291° West 372 428 36,000  Level Cleveland Center
07:33PM 41.8878 -76.9458 291° West 377 434 36,000  Level Cleveland Center
07:34PM 41.9233 -77.0778 290° West 377 434 36,000  Level Cleveland Center
07:35PM 41.9586 -77.2156 289° West 383 441 36,000  Level Cleveland Center
07:36PM 41.9958 -77.3506 290° West 383 441 36,000  Level Cleveland Center
07:37PM 42.0306 -77.4800 290° West 383 441 36,000  Level Cleveland Center
07:38PM 42.0608 -77.5933 290° West 369 425 36,000  Level Cleveland Center
07:39PM 42.0933 -77.7206 289° West 363 418 36,000  Level Cleveland Center
07:40PM 42.1256 -77.8450 289° West 363 418 36,000  Level Cleveland Center
07:41PM 42.1597 -77.9697 290° West 363 418 36,000  Level Cleveland Center
07:42PM 42.1917 -78.0972 289° West 363 418 36,000  Level Cleveland Center
07:43PM 42.2233 -78.2222 289° West 363 418 36,000  Level Cleveland Center
07:44PM 42.2572 -78.3444 291° West 363 418 36,000  Level Cleveland Center
07:45PM 42.2886 -78.4697 289° West 358 412 36,000  Level Cleveland Center
07:46PM 42.3200 -78.5894 290° West 358 412 36,000  Level Cleveland Center
07:47PM 42.3514 -78.7147 289° West 358 412 36,000  Level Cleveland Center
07:48PM 42.3825 -78.8347 289° West 353 406 36,000  Level Cleveland Center
07:49PM 42.4156 -78.9717 288° West 353 406 36,000  Level Cleveland Center
07:50PM 42.4444 -79.0947 288° West 348 400 36,000  Level Cleveland Center
07:51PM 42.4769 -79.2039 292° West 348 400 36,000  Level Cleveland Center
07:52PM 42.4950 -79.3331 281° West 343 395 36,000  Level Cleveland Center
07:53PM 42.5006 -79.4594 273° West 343 395 36,000  Level Cleveland Center
07:54PM 42.5058 -79.5861 273° West 338 389 36,000  Level Cleveland Center
07:55PM 42.5133 -79.7156 275° West 338 389 36,000  Level Cleveland Center
07:56PM 42.5203 -79.8394 274° West 338 389 36,000  Level Cleveland Center
07:57PM 42.5275 -79.9689 274° West 338 389 36,000  Level Cleveland Center
07:58PM 42.5281 -80.1100 270° West 343 395 36,000  Level Cleveland Center
07:59PM 42.5347 -80.2394 274° West 348 400 36,000  Level Cleveland Center
08:00PM 42.5414 -80.3661 274° West 343 395 36,000  Level Cleveland Center
08:01PM 42.5456 -80.4958 273° West 348 400 36,000  Level Cleveland Center
08:02PM 42.5497 -80.6225 273° West 341 392 36,000  Level Cleveland Center
08:03PM 42.5539 -80.7494 273° West 351 404 36,000  Level Cleveland Center
08:04PM 42.5597 -80.8764 274° West 345 397 36,000  Level Cleveland Center
08:05PM 42.5636 -81.0061 272° West 345 397 36,000  Level Cleveland Center
08:06PM 42.5694 -81.1331 274° West 345 397 36,000  Level Cleveland Center
08:07PM 42.5728 -81.2542 272° West 350 403 36,000  Level Cleveland Center
08:08PM 42.5761 -81.3839 272° West 343 395 36,000  Level Cleveland Center
08:09PM 42.5919 -81.5111 280° West 349 402 36,000  Level Cleveland Center
08:10PM 42.6158 -81.6411 284° West 354 407 36,000  Level Cleveland Center
08:11PM 42.6394 -81.7686 284° West 354 407 36,000  Level Cleveland Center
08:12PM 42.6631 -81.9158 282° West 354 407 36,000  Level Cleveland Center
08:13PM 42.6844 -82.0433 283° West 359 413 36,000  Level Cleveland Center
08:14PM 42.7078 -82.1711 284° West 354 407 36,000  Level Cleveland Center
08:15PM 42.7308 -82.3017 284° West 354 407 36,000  Level Cleveland Center
08:16PM 42.7539 -82.4294 284° West 354 407 36,000  Level Cleveland Center
08:17PM 42.7725 -82.5631 281° West 354 407 36,000  Level Cleveland Center
08:18PM 42.7953 -82.6911 284° West 354 407 36,000  Level Cleveland Center
08:19PM 42.8178 -82.8250 283° West 354 407 36,000  Level Cleveland Center
08:20PM 42.8403 -82.9533 283° West 354 407 36,000 -540 Level Cleveland Center
08:21PM 42.8600 -83.0928 281° West 354 407 35,000 -1,020 Descending Cleveland Center
08:22PM 42.8819 -83.2297 282° West 364 419 34,000 -960 Descending Cleveland Center
08:23PM 42.9078 -83.3753 284° West 377 434 33,100 -1,080 Descending Cleveland Center
08:24PM 42.9292 -83.5208 281° West 388 447 31,900 -1,200 Descending Cleveland Center
08:25PM 42.9508 -83.6553 282° West 395 455 30,700 -960 Descending Cleveland Center
08:26PM 42.9592 -83.8033 274° West 395 455 30,000 -360 Descending Cleveland Center
08:27PM 42.9447 -83.9472 262° West 389 448 30,000  Level Cleveland Center
08:28PM 42.9319 -84.0939 263° West 384 442 30,000  Level Cleveland Center
08:29PM 42.9169 -84.2406 262° West 384 442 30,000  Level Cleveland Center
08:31PM 42.8911 -84.5156 263° West 395 455 30,000  Level Chicago Center
08:32PM 42.8769 -84.6625 263° West 392 451 30,000  Level Chicago Center
08:33PM 42.8611 -84.8039 261° West 380 437 30,000  Level Chicago Center
08:34PM 42.8444 -84.9603 262° West 352 405 30,000  Level Chicago Center
08:35PM 42.8311 -85.0917 262° West 352 405 30,000 -180 Level Chicago Center
08:36PM 42.8164 -85.2233 261° West 352 405 29,700 -720 Descending Chicago Center
08:37PM 42.8019 -85.3519 261° West 347 399 28,600 -840 Descending Chicago Center
08:38PM 42.7872 -85.4808 261° West 345 397 28,000 -300 Descending Chicago Center
08:39PM 42.7669 -85.6069 258° West 341 392 28,000 -300 Level Chicago Center
08:40PM 42.7394 -85.7581 256° West 341 392 27,400 -1,200 Descending Chicago Center
08:41PM 42.7172 -85.8833 256° West 341 392 25,600 -1,740 Descending Chicago Center
08:42PM 42.6939 -86.0056 255° West 335 386 23,900 -1,680 Descending Chicago Center
08:43PM 42.6728 -86.1244 256° West 327 376 22,200 -1,740 Descending Chicago Center
08:44PM 42.6508 -86.2464 256° West 327 376 20,400 -1,740 Descending Chicago Center
08:46PM 42.6256 -86.3731 255° West 343 395 18,700 -1,440 Descending Chicago Center
08:47PM 42.6022 -86.4986 256° West 343 395 17,500 -1,380 Descending Chicago Center
08:48PM 42.5806 -86.6178 256° West 328 377 15,900 -1,620 Descending Chicago Center
08:49PM 42.5517 -86.7581 254° West 324 373 14,200 -1,500 Descending Chicago Center
08:50PM 42.5222 -86.8697 250° West 319 367 12,900 -1,320 Descending Chicago Center
08:51PM 42.4917 -86.9808 250° West 316 364 11,500 -1,380 Descending Chicago Center
08:52PM 42.4589 -87.0942 249° West 320 368 10,100 -780 Descending Chicago Center
08:53PM 42.4286 -87.2083 250° West 324 373 10,000 -60 Descending Chicago Center
08:54PM 42.3969 -87.3228 249° West 324 373 10,000  Level Chicago Center
08:55PM 42.3642 -87.4456 250° West 325 374 10,000  Level Chicago Center
08:56PM 42.3239 -87.5519 243° Southwest 324 373 10,000  Level Chicago Center
08:57PM 42.2372 -87.6431 218° Southwest 331 381 10,000  Level Chicago Center
08:58PM 42.1678 -87.7161 218° Southwest 322 371 10,000 -600 Level Chicago Center
08:59PM 42.1000 -87.7833 216° Southwest 268 308 8,800 -1,500 Descending Chicago TRACON
09:00PM 42.0833 -87.8667 255° West 257 296 7,200 -900 Descending Chicago TRACON
09:01PM 42.0500 -87.9333 236° Southwest 214 246 7,100 -120 Descending Chicago TRACON
09:02PM 42.0500 -88.0167 270° West 182 209 7,000 -900 Descending Chicago TRACON
09:03PM 42.0500 -88.0833 270° West 187 215 5,400 -1,560 Descending Chicago TRACON
09:04PM 42.0333 -88.1333 246° West 210 242 3,900 -1,200 Descending Chicago TRACON
09:05PM 42.0000 -88.0667 124° Southeast 185 213 3,000 -900 Descending Chicago TRACON